sensor_id;sensor_type;location;lat;lon;timestamp;temperature;humidity
6375;DHT22;35400;45.472;-122.822;2024-02-14T00:02:27;10.70;99.90
6375;DHT22;35400;45.472;-122.822;2024-02-14T00:04:54;10.70;99.90
6375;DHT22;35400;45.472;-122.822;2024-02-14T00:07:21;10.70;99.90
6375;DHT22;35400;45.472;-122.822;2024-02-14T00:09:48;10.70;99.90
6375;DHT22;35400;45.472;-122.822;2024-02-14T00:12:15;10.60;99.90
6375;DHT22;35400;45.472;-122.822;2024-02-14T00:14:42;10.60;99.90
6375;DHT22;35400;45.472;-122.822;2024-02-14T00:17:09;10.60;99.90
6375;DHT22;35400;45.472;-122.822;2024-02-14T00:19:36;10.60;99.90
6375;DHT22;35400;45.472;-122.822;2024-02-14T00:22:03;10.60;99.90
6375;DHT22;35400;45.472;-122.822;2024-02-14T00:24:30;10.60;99.90
6375;DHT22;35400;45.472;-122.822;2024-02-14T00:26:58;10.50;99.90
6375;DHT22;35400;45.472;-122.822;2024-02-14T00:29:27;10.50;99.90
6375;DHT22;35400;45.472;-122.822;2024-02-14T00:31:53;10.50;99.90
6375;DHT22;35400;45.472;-122.822;2024-02-14T00:34:20;10.40;99.90
6375;DHT22;35400;45.472;-122.822;2024-02-14T00:36:47;10.40;99.90
6375;DHT22;35400;45.472;-122.822;2024-02-14T00:39:14;10.30;99.90
6375;DHT22;35400;45.472;-122.822;2024-02-14T00:41:41;10.30;99.90
6375;DHT22;35400;45.472;-122.822;2024-02-14T00:44:08;10.20;99.90
6375;DHT22;35400;45.472;-122.822;2024-02-14T00:46:35;10.20;99.90
6375;DHT22;35400;45.472;-122.822;2024-02-14T00:49:02;10.10;99.90
6375;DHT22;35400;45.472;-122.822;2024-02-14T00:51:29;10.10;99.90
6375;DHT22;35400;45.472;-122.822;2024-02-14T00:53:55;10.00;99.90
6375;DHT22;35400;45.472;-122.822;2024-02-14T00:56:22;10.00;99.90
6375;DHT22;35400;45.472;-122.822;2024-02-14T00:58:50;9.90;99.90
6375;DHT22;35400;45.472;-122.822;2024-02-14T01:01:17;9.90;99.90
6375;DHT22;35400;45.472;-122.822;2024-02-14T01:03:43;9.80;99.90
6375;DHT22;35400;45.472;-122.822;2024-02-14T01:06:10;9.70;99.90
6375;DHT22;35400;45.472;-122.822;2024-02-14T01:08:37;9.60;99.90
6375;DHT22;35400;45.472;-122.822;2024-02-14T01:11:04;9.50;99.90
6375;DHT22;35400;45.472;-122.822;2024-02-14T01:13:31;9.40;99.90
6375;DHT22;35400;45.472;-122.822;2024-02-14T01:15:58;9.30;99.90
6375;DHT22;35400;45.472;-122.822;2024-02-14T01:18:24;9.20;99.90
6375;DHT22;35400;45.472;-122.822;2024-02-14T01:20:51;9.10;99.90
6375;DHT22;35400;45.472;-122.822;2024-02-14T01:23:20;9.00;99.90
6375;DHT22;35400;45.472;-122.822;2024-02-14T01:25:46;8.90;99.90
6375;DHT22;35400;45.472;-122.822;2024-02-14T01:28:13;8.80;99.90
6375;DHT22;35400;45.472;-122.822;2024-02-14T01:30:40;8.70;99.90
6375;DHT22;35400;45.472;-122.822;2024-02-14T01:33:07;8.60;99.90
6375;DHT22;35400;45.472;-122.822;2024-02-14T01:35:34;8.50;99.90
6375;DHT22;35400;45.472;-122.822;2024-02-14T01:38:01;8.40;99.90
6375;DHT22;35400;45.472;-122.822;2024-02-14T01:40:29;8.30;99.90
6375;DHT22;35400;45.472;-122.822;2024-02-14T01:42:56;8.10;99.90
6375;DHT22;35400;45.472;-122.822;2024-02-14T01:45:23;8.10;99.90
6375;DHT22;35400;45.472;-122.822;2024-02-14T01:47:50;7.90;99.90
6375;DHT22;35400;45.472;-122.822;2024-02-14T01:50:17;7.80;99.90
6375;DHT22;35400;45.472;-122.822;2024-02-14T01:52:45;7.70;99.90
6375;DHT22;35400;45.472;-122.822;2024-02-14T01:55:12;7.70;99.90
6375;DHT22;35400;45.472;-122.822;2024-02-14T01:57:40;7.60;99.90
6375;DHT22;35400;45.472;-122.822;2024-02-14T02:00:07;7.50;99.90
6375;DHT22;35400;45.472;-122.822;2024-02-14T02:02:44;7.40;99.90
6375;DHT22;35400;45.472;-122.822;2024-02-14T02:05:17;7.30;99.90
6375;DHT22;35400;45.472;-122.822;2024-02-14T02:07:45;7.20;99.90
6375;DHT22;35400;45.472;-122.822;2024-02-14T02:10:14;7.10;99.90
6375;DHT22;35400;45.472;-122.822;2024-02-14T02:12:42;7.00;99.90
6375;DHT22;35400;45.472;-122.822;2024-02-14T02:15:10;6.90;99.90
6375;DHT22;35400;45.472;-122.822;2024-02-14T02:17:39;6.80;99.90
6375;DHT22;35400;45.472;-122.822;2024-02-14T02:20:07;6.70;99.90
6375;DHT22;35400;45.472;-122.822;2024-02-14T02:22:35;6.60;99.90
6375;DHT22;35400;45.472;-122.822;2024-02-14T02:25:03;6.50;99.90
6375;DHT22;35400;45.472;-122.822;2024-02-14T02:27:36;6.50;99.90
6375;DHT22;35400;45.472;-122.822;2024-02-14T02:30:07;6.40;99.90
6375;DHT22;35400;45.472;-122.822;2024-02-14T02:32:37;6.30;99.90
6375;DHT22;35400;45.472;-122.822;2024-02-14T02:35:04;6.30;99.90
6375;DHT22;35400;45.472;-122.822;2024-02-14T02:37:31;6.20;99.90
6375;DHT22;35400;45.472;-122.822;2024-02-14T02:39:58;6.10;99.90
6375;DHT22;35400;45.472;-122.822;2024-02-14T02:42:25;6.00;99.90
6375;DHT22;35400;45.472;-122.822;2024-02-14T02:44:52;6.00;99.90
6375;DHT22;35400;45.472;-122.822;2024-02-14T02:47:20;5.90;99.90
6375;DHT22;35400;45.472;-122.822;2024-02-14T02:49:47;5.80;99.90
6375;DHT22;35400;45.472;-122.822;2024-02-14T02:52:14;5.80;99.90
6375;DHT22;35400;45.472;-122.822;2024-02-14T02:54:41;5.70;99.90
6375;DHT22;35400;45.472;-122.822;2024-02-14T02:57:10;5.70;99.90
6375;DHT22;35400;45.472;-122.822;2024-02-14T02:59:37;5.60;99.90
6375;DHT22;35400;45.472;-122.822;2024-02-14T03:02:09;5.50;99.90
6375;DHT22;35400;45.472;-122.822;2024-02-14T03:04:39;5.50;99.90
6375;DHT22;35400;45.472;-122.822;2024-02-14T03:07:06;5.40;99.90
6375;DHT22;35400;45.472;-122.822;2024-02-14T03:09:35;5.40;99.90
6375;DHT22;35400;45.472;-122.822;2024-02-14T03:12:05;5.30;99.90
6375;DHT22;35400;45.472;-122.822;2024-02-14T03:14:33;5.30;99.90
6375;DHT22;35400;45.472;-122.822;2024-02-14T03:17:00;5.20;99.90
6375;DHT22;35400;45.472;-122.822;2024-02-14T03:19:29;5.10;99.90
6375;DHT22;35400;45.472;-122.822;2024-02-14T03:21:56;5.10;99.90
6375;DHT22;35400;45.472;-122.822;2024-02-14T03:24:23;5.00;99.90
6375;DHT22;35400;45.472;-122.822;2024-02-14T03:26:53;5.00;99.90
6375;DHT22;35400;45.472;-122.822;2024-02-14T03:29:21;4.90;99.90
6375;DHT22;35400;45.472;-122.822;2024-02-14T03:31:48;4.90;99.90
6375;DHT22;35400;45.472;-122.822;2024-02-14T03:34:15;4.80;99.90
6375;DHT22;35400;45.472;-122.822;2024-02-14T03:36:41;4.70;99.90
6375;DHT22;35400;45.472;-122.822;2024-02-14T03:39:09;4.70;99.90
6375;DHT22;35400;45.472;-122.822;2024-02-14T03:41:37;4.60;99.90
6375;DHT22;35400;45.472;-122.822;2024-02-14T03:44:04;4.60;99.90
6375;DHT22;35400;45.472;-122.822;2024-02-14T03:46:33;4.50;99.90
6375;DHT22;35400;45.472;-122.822;2024-02-14T03:49:01;4.50;99.90
6375;DHT22;35400;45.472;-122.822;2024-02-14T03:51:28;4.40;99.90
6375;DHT22;35400;45.472;-122.822;2024-02-14T03:53:55;4.30;99.90
6375;DHT22;35400;45.472;-122.822;2024-02-14T03:56:22;4.30;99.90
6375;DHT22;35400;45.472;-122.822;2024-02-14T03:58:49;4.20;99.90
6375;DHT22;35400;45.472;-122.822;2024-02-14T04:01:17;4.20;99.90
6375;DHT22;35400;45.472;-122.822;2024-02-14T04:03:46;4.10;99.90
6375;DHT22;35400;45.472;-122.822;2024-02-14T04:06:14;4.10;99.90
6375;DHT22;35400;45.472;-122.822;2024-02-14T04:08:41;4.00;99.90
6375;DHT22;35400;45.472;-122.822;2024-02-14T04:11:08;4.00;99.90
6375;DHT22;35400;45.472;-122.822;2024-02-14T04:13:36;3.90;99.90
6375;DHT22;35400;45.472;-122.822;2024-02-14T04:16:03;3.90;99.90
6375;DHT22;35400;45.472;-122.822;2024-02-14T04:18:30;3.80;99.90
6375;DHT22;35400;45.472;-122.822;2024-02-14T04:20:57;3.80;99.90
6375;DHT22;35400;45.472;-122.822;2024-02-14T04:23:23;3.70;99.90
6375;DHT22;35400;45.472;-122.822;2024-02-14T04:25:51;3.70;99.90
6375;DHT22;35400;45.472;-122.822;2024-02-14T04:28:18;3.60;99.90
6375;DHT22;35400;45.472;-122.822;2024-02-14T04:30:45;3.60;99.90
6375;DHT22;35400;45.472;-122.822;2024-02-14T04:33:12;3.50;99.90
6375;DHT22;35400;45.472;-122.822;2024-02-14T04:35:40;3.50;99.90
6375;DHT22;35400;45.472;-122.822;2024-02-14T04:38:07;3.40;99.90
6375;DHT22;35400;45.472;-122.822;2024-02-14T04:40:35;3.40;99.90
6375;DHT22;35400;45.472;-122.822;2024-02-14T04:43:01;3.40;99.90
6375;DHT22;35400;45.472;-122.822;2024-02-14T04:45:29;3.30;99.90
6375;DHT22;35400;45.472;-122.822;2024-02-14T04:47:55;3.30;99.90
6375;DHT22;35400;45.472;-122.822;2024-02-14T04:50:22;3.30;99.90
6375;DHT22;35400;45.472;-122.822;2024-02-14T04:52:49;3.20;99.90
6375;DHT22;35400;45.472;-122.822;2024-02-14T04:55:16;3.10;99.90
6375;DHT22;35400;45.472;-122.822;2024-02-14T04:57:43;3.10;99.90
6375;DHT22;35400;45.472;-122.822;2024-02-14T05:00:10;3.10;99.90
6375;DHT22;35400;45.472;-122.822;2024-02-14T05:02:37;3.00;99.90
6375;DHT22;35400;45.472;-122.822;2024-02-14T05:05:04;3.00;99.90
6375;DHT22;35400;45.472;-122.822;2024-02-14T05:07:32;2.90;99.90
6375;DHT22;35400;45.472;-122.822;2024-02-14T05:10:00;2.90;99.90
6375;DHT22;35400;45.472;-122.822;2024-02-14T05:12:27;2.80;99.90
6375;DHT22;35400;45.472;-122.822;2024-02-14T05:14:54;2.80;99.90
6375;DHT22;35400;45.472;-122.822;2024-02-14T05:17:21;2.80;99.90
6375;DHT22;35400;45.472;-122.822;2024-02-14T05:19:49;2.70;99.90
6375;DHT22;35400;45.472;-122.822;2024-02-14T05:22:15;2.70;99.90
6375;DHT22;35400;45.472;-122.822;2024-02-14T05:24:42;2.70;99.90
6375;DHT22;35400;45.472;-122.822;2024-02-14T05:27:09;2.60;99.90
6375;DHT22;35400;45.472;-122.822;2024-02-14T05:29:36;2.60;99.90
6375;DHT22;35400;45.472;-122.822;2024-02-14T05:32:03;2.60;99.90
6375;DHT22;35400;45.472;-122.822;2024-02-14T05:34:30;2.50;99.90
6375;DHT22;35400;45.472;-122.822;2024-02-14T05:36:57;2.50;99.90
6375;DHT22;35400;45.472;-122.822;2024-02-14T05:39:24;2.40;99.90
6375;DHT22;35400;45.472;-122.822;2024-02-14T05:41:51;2.40;99.90
6375;DHT22;35400;45.472;-122.822;2024-02-14T05:44:21;2.40;99.90
6375;DHT22;35400;45.472;-122.822;2024-02-14T05:46:48;2.40;99.90
6375;DHT22;35400;45.472;-122.822;2024-02-14T05:49:15;2.40;99.90
6375;DHT22;35400;45.472;-122.822;2024-02-14T05:51:42;2.30;99.90
6375;DHT22;35400;45.472;-122.822;2024-02-14T05:54:09;2.30;99.90
6375;DHT22;35400;45.472;-122.822;2024-02-14T05:56:36;2.20;99.90
6375;DHT22;35400;45.472;-122.822;2024-02-14T05:59:03;2.20;99.90
6375;DHT22;35400;45.472;-122.822;2024-02-14T06:01:30;2.20;99.90
6375;DHT22;35400;45.472;-122.822;2024-02-14T06:03:56;2.20;99.90
6375;DHT22;35400;45.472;-122.822;2024-02-14T06:06:24;2.10;99.90
6375;DHT22;35400;45.472;-122.822;2024-02-14T06:08:50;2.10;99.90
6375;DHT22;35400;45.472;-122.822;2024-02-14T06:11:18;2.00;99.90
6375;DHT22;35400;45.472;-122.822;2024-02-14T06:13:48;2.00;99.90
6375;DHT22;35400;45.472;-122.822;2024-02-14T06:19:13;1.90;99.90
6375;DHT22;35400;45.472;-122.822;2024-02-14T06:21:40;1.90;99.90
6375;DHT22;35400;45.472;-122.822;2024-02-14T06:24:07;1.90;99.90
6375;DHT22;35400;45.472;-122.822;2024-02-14T06:26:41;1.80;99.90
6375;DHT22;35400;45.472;-122.822;2024-02-14T06:29:08;1.80;99.90
6375;DHT22;35400;45.472;-122.822;2024-02-14T06:31:35;1.80;99.90
6375;DHT22;35400;45.472;-122.822;2024-02-14T06:34:02;1.70;99.90
6375;DHT22;35400;45.472;-122.822;2024-02-14T06:36:29;1.70;99.90
6375;DHT22;35400;45.472;-122.822;2024-02-14T06:38:56;1.70;99.90
6375;DHT22;35400;45.472;-122.822;2024-02-14T06:41:23;1.70;99.90
6375;DHT22;35400;45.472;-122.822;2024-02-14T06:43:50;1.60;99.90
6375;DHT22;35400;45.472;-122.822;2024-02-14T06:46:17;1.60;99.90
6375;DHT22;35400;45.472;-122.822;2024-02-14T06:48:46;1.60;99.90
6375;DHT22;35400;45.472;-122.822;2024-02-14T06:51:13;1.60;99.90
6375;DHT22;35400;45.472;-122.822;2024-02-14T06:53:40;1.60;99.90
6375;DHT22;35400;45.472;-122.822;2024-02-14T06:56:07;1.60;99.90
6375;DHT22;35400;45.472;-122.822;2024-02-14T06:58:34;1.60;99.90
6375;DHT22;35400;45.472;-122.822;2024-02-14T07:01:01;1.60;99.90
6375;DHT22;35400;45.472;-122.822;2024-02-14T07:03:29;1.70;99.90
6375;DHT22;35400;45.472;-122.822;2024-02-14T07:05:57;1.70;99.90
6375;DHT22;35400;45.472;-122.822;2024-02-14T07:08:23;1.70;99.90
6375;DHT22;35400;45.472;-122.822;2024-02-14T07:10:54;1.70;99.90
6375;DHT22;35400;45.472;-122.822;2024-02-14T07:13:22;1.80;99.90
6375;DHT22;35400;45.472;-122.822;2024-02-14T07:15:49;1.80;99.90
6375;DHT22;35400;45.472;-122.822;2024-02-14T07:18:16;1.90;99.90
6375;DHT22;35400;45.472;-122.822;2024-02-14T07:20:43;1.90;99.90
6375;DHT22;35400;45.472;-122.822;2024-02-14T07:23:10;2.00;99.90
6375;DHT22;35400;45.472;-122.822;2024-02-14T07:25:37;2.00;99.90
6375;DHT22;35400;45.472;-122.822;2024-02-14T07:28:04;2.10;99.90
6375;DHT22;35400;45.472;-122.822;2024-02-14T07:30:31;2.10;99.90
6375;DHT22;35400;45.472;-122.822;2024-02-14T07:32:58;2.20;99.90
6375;DHT22;35400;45.472;-122.822;2024-02-14T07:35:25;2.20;99.90
6375;DHT22;35400;45.472;-122.822;2024-02-14T07:37:52;2.30;99.90
6375;DHT22;35400;45.472;-122.822;2024-02-14T07:40:20;2.30;99.90
6375;DHT22;35400;45.472;-122.822;2024-02-14T07:42:47;2.40;99.90
6375;DHT22;35400;45.472;-122.822;2024-02-14T07:45:14;2.40;99.90
6375;DHT22;35400;45.472;-122.822;2024-02-14T07:47:41;2.40;99.90
6375;DHT22;35400;45.472;-122.822;2024-02-14T07:50:08;2.50;99.90
6375;DHT22;35400;45.472;-122.822;2024-02-14T07:52:35;2.50;99.90
6375;DHT22;35400;45.472;-122.822;2024-02-14T07:55:02;2.50;99.90
6375;DHT22;35400;45.472;-122.822;2024-02-14T07:57:29;2.60;99.90
6375;DHT22;35400;45.472;-122.822;2024-02-14T07:59:56;2.60;99.90
6375;DHT22;35400;45.472;-122.822;2024-02-14T08:02:23;2.60;99.90
6375;DHT22;35400;45.472;-122.822;2024-02-14T08:04:50;2.60;99.90
6375;DHT22;35400;45.472;-122.822;2024-02-14T08:07:17;2.60;99.90
6375;DHT22;35400;45.472;-122.822;2024-02-14T08:09:44;2.70;99.90
6375;DHT22;35400;45.472;-122.822;2024-02-14T08:12:10;2.70;99.90
6375;DHT22;35400;45.472;-122.822;2024-02-14T08:14:37;2.70;99.90
6375;DHT22;35400;45.472;-122.822;2024-02-14T08:17:04;2.70;99.90
6375;DHT22;35400;45.472;-122.822;2024-02-14T08:19:31;2.80;99.90
6375;DHT22;35400;45.472;-122.822;2024-02-14T08:21:58;2.80;99.90
6375;DHT22;35400;45.472;-122.822;2024-02-14T08:24:27;2.80;99.90
6375;DHT22;35400;45.472;-122.822;2024-02-14T08:26:54;2.80;99.90
6375;DHT22;35400;45.472;-122.822;2024-02-14T08:29:21;2.90;99.90
6375;DHT22;35400;45.472;-122.822;2024-02-14T08:31:48;2.90;99.90
6375;DHT22;35400;45.472;-122.822;2024-02-14T08:34:16;2.90;99.90
6375;DHT22;35400;45.472;-122.822;2024-02-14T08:36:43;2.90;99.90
6375;DHT22;35400;45.472;-122.822;2024-02-14T08:39:11;2.90;99.90
6375;DHT22;35400;45.472;-122.822;2024-02-14T08:41:38;2.90;99.90
6375;DHT22;35400;45.472;-122.822;2024-02-14T08:44:06;2.90;99.90
6375;DHT22;35400;45.472;-122.822;2024-02-14T08:46:33;2.90;99.90
6375;DHT22;35400;45.472;-122.822;2024-02-14T08:49:01;2.90;99.90
6375;DHT22;35400;45.472;-122.822;2024-02-14T08:51:29;2.90;99.90
6375;DHT22;35400;45.472;-122.822;2024-02-14T08:53:55;3.00;99.90
6375;DHT22;35400;45.472;-122.822;2024-02-14T08:56:25;3.00;99.90
6375;DHT22;35400;45.472;-122.822;2024-02-14T08:58:52;2.90;99.90
6375;DHT22;35400;45.472;-122.822;2024-02-14T09:01:21;2.90;99.90
6375;DHT22;35400;45.472;-122.822;2024-02-14T09:03:49;2.90;99.90
6375;DHT22;35400;45.472;-122.822;2024-02-14T09:06:17;2.90;99.90
6375;DHT22;35400;45.472;-122.822;2024-02-14T09:08:48;2.90;99.90
6375;DHT22;35400;45.472;-122.822;2024-02-14T09:11:20;2.90;99.90
6375;DHT22;35400;45.472;-122.822;2024-02-14T09:13:49;2.90;99.90
6375;DHT22;35400;45.472;-122.822;2024-02-14T09:16:20;2.90;99.90
6375;DHT22;35400;45.472;-122.822;2024-02-14T09:18:48;2.90;99.90
6375;DHT22;35400;45.472;-122.822;2024-02-14T09:21:15;2.90;99.90
6375;DHT22;35400;45.472;-122.822;2024-02-14T09:23:49;2.90;99.90
6375;DHT22;35400;45.472;-122.822;2024-02-14T09:26:17;2.90;99.90
6375;DHT22;35400;45.472;-122.822;2024-02-14T09:28:44;2.80;99.90
6375;DHT22;35400;45.472;-122.822;2024-02-14T09:31:11;2.80;99.90
6375;DHT22;35400;45.472;-122.822;2024-02-14T09:33:39;2.80;99.90
6375;DHT22;35400;45.472;-122.822;2024-02-14T09:36:06;2.80;99.90
6375;DHT22;35400;45.472;-122.822;2024-02-14T09:38:33;2.80;99.90
6375;DHT22;35400;45.472;-122.822;2024-02-14T09:41:19;2.80;99.90
6375;DHT22;35400;45.472;-122.822;2024-02-14T09:43:49;2.80;99.90
6375;DHT22;35400;45.472;-122.822;2024-02-14T09:46:16;2.80;99.90
6375;DHT22;35400;45.472;-122.822;2024-02-14T09:48:55;2.80;99.90
6375;DHT22;35400;45.472;-122.822;2024-02-14T09:51:24;2.80;99.90
6375;DHT22;35400;45.472;-122.822;2024-02-14T09:53:51;2.80;99.90
6375;DHT22;35400;45.472;-122.822;2024-02-14T09:56:21;2.80;99.90
6375;DHT22;35400;45.472;-122.822;2024-02-14T09:58:52;2.80;99.90
6375;DHT22;35400;45.472;-122.822;2024-02-14T10:01:24;2.80;99.90
6375;DHT22;35400;45.472;-122.822;2024-02-14T10:03:52;2.80;99.90
6375;DHT22;35400;45.472;-122.822;2024-02-14T10:06:19;2.80;99.90
6375;DHT22;35400;45.472;-122.822;2024-02-14T10:08:49;2.80;99.90
6375;DHT22;35400;45.472;-122.822;2024-02-14T10:11:20;2.80;99.90
6375;DHT22;35400;45.472;-122.822;2024-02-14T10:13:51;2.80;99.90
6375;DHT22;35400;45.472;-122.822;2024-02-14T10:16:20;2.80;99.90
6375;DHT22;35400;45.472;-122.822;2024-02-14T10:18:47;2.80;99.90
6375;DHT22;35400;45.472;-122.822;2024-02-14T10:21:17;2.80;99.90
6375;DHT22;35400;45.472;-122.822;2024-02-14T10:23:46;2.80;99.90
6375;DHT22;35400;45.472;-122.822;2024-02-14T10:26:17;2.80;99.90
6375;DHT22;35400;45.472;-122.822;2024-02-14T10:28:45;2.80;99.90
6375;DHT22;35400;45.472;-122.822;2024-02-14T10:31:12;2.80;99.90
6375;DHT22;35400;45.472;-122.822;2024-02-14T10:33:39;2.70;99.90
6375;DHT22;35400;45.472;-122.822;2024-02-14T10:36:08;2.80;99.90
6375;DHT22;35400;45.472;-122.822;2024-02-14T10:38:35;2.70;99.90
6375;DHT22;35400;45.472;-122.822;2024-02-14T10:41:03;2.70;99.90
6375;DHT22;35400;45.472;-122.822;2024-02-14T10:43:30;2.70;99.90
6375;DHT22;35400;45.472;-122.822;2024-02-14T10:46:05;2.70;99.90
6375;DHT22;35400;45.472;-122.822;2024-02-14T10:48:37;2.70;99.90
6375;DHT22;35400;45.472;-122.822;2024-02-14T10:51:06;2.70;99.90
6375;DHT22;35400;45.472;-122.822;2024-02-14T10:53:34;2.70;99.90
6375;DHT22;35400;45.472;-122.822;2024-02-14T10:56:03;2.70;99.90
6375;DHT22;35400;45.472;-122.822;2024-02-14T10:58:31;2.70;99.90
6375;DHT22;35400;45.472;-122.822;2024-02-14T11:00:59;2.70;99.90
6375;DHT22;35400;45.472;-122.822;2024-02-14T11:03:27;2.70;99.90
6375;DHT22;35400;45.472;-122.822;2024-02-14T11:06:02;2.70;99.90
6375;DHT22;35400;45.472;-122.822;2024-02-14T11:08:30;2.60;99.90
6375;DHT22;35400;45.472;-122.822;2024-02-14T11:11:01;2.60;99.90
6375;DHT22;35400;45.472;-122.822;2024-02-14T11:13:31;2.60;99.90
6375;DHT22;35400;45.472;-122.822;2024-02-14T11:16:02;2.60;99.90
6375;DHT22;35400;45.472;-122.822;2024-02-14T11:18:31;2.50;99.90
6375;DHT22;35400;45.472;-122.822;2024-02-14T11:21:03;2.50;99.90
6375;DHT22;35400;45.472;-122.822;2024-02-14T11:23:30;2.50;99.90
6375;DHT22;35400;45.472;-122.822;2024-02-14T11:26:02;2.50;99.90
6375;DHT22;35400;45.472;-122.822;2024-02-14T11:28:30;2.40;99.90
6375;DHT22;35400;45.472;-122.822;2024-02-14T11:31:03;2.50;99.90
6375;DHT22;35400;45.472;-122.822;2024-02-14T11:33:32;2.50;99.90
6375;DHT22;35400;45.472;-122.822;2024-02-14T11:36:07;2.40;99.90
6375;DHT22;35400;45.472;-122.822;2024-02-14T11:38:36;2.40;99.90
6375;DHT22;35400;45.472;-122.822;2024-02-14T11:41:06;2.40;99.90
6375;DHT22;35400;45.472;-122.822;2024-02-14T11:43:33;2.40;99.90
6375;DHT22;35400;45.472;-122.822;2024-02-14T11:46:00;2.30;99.90
6375;DHT22;35400;45.472;-122.822;2024-02-14T11:48:29;2.30;99.90
6375;DHT22;35400;45.472;-122.822;2024-02-14T11:50:56;2.40;99.90
6375;DHT22;35400;45.472;-122.822;2024-02-14T11:53:23;2.40;99.90
6375;DHT22;35400;45.472;-122.822;2024-02-14T11:55:52;2.40;99.90
6375;DHT22;35400;45.472;-122.822;2024-02-14T11:58:19;2.40;99.90
6375;DHT22;35400;45.472;-122.822;2024-02-14T12:00:47;2.40;99.90
6375;DHT22;35400;45.472;-122.822;2024-02-14T12:03:18;2.50;99.90
6375;DHT22;35400;45.472;-122.822;2024-02-14T12:05:47;2.50;99.90
6375;DHT22;35400;45.472;-122.822;2024-02-14T12:08:14;2.50;99.90
6375;DHT22;35400;45.472;-122.822;2024-02-14T12:10:45;2.50;99.90
6375;DHT22;35400;45.472;-122.822;2024-02-14T12:13:20;2.40;99.90
6375;DHT22;35400;45.472;-122.822;2024-02-14T12:15:49;2.40;99.90
6375;DHT22;35400;45.472;-122.822;2024-02-14T12:18:18;2.40;99.90
6375;DHT22;35400;45.472;-122.822;2024-02-14T12:20:46;2.30;99.90
6375;DHT22;35400;45.472;-122.822;2024-02-14T12:23:16;2.30;99.90
6375;DHT22;35400;45.472;-122.822;2024-02-14T12:25:44;2.30;99.90
6375;DHT22;35400;45.472;-122.822;2024-02-14T12:28:19;2.30;99.90
6375;DHT22;35400;45.472;-122.822;2024-02-14T12:33:27;2.30;99.90
6375;DHT22;35400;45.472;-122.822;2024-02-14T12:35:57;2.20;99.90
6375;DHT22;35400;45.472;-122.822;2024-02-14T12:38:24;2.20;99.90
6375;DHT22;35400;45.472;-122.822;2024-02-14T12:40:51;2.20;99.90
6375;DHT22;35400;45.472;-122.822;2024-02-14T12:43:21;2.10;99.90
6375;DHT22;35400;45.472;-122.822;2024-02-14T12:45:48;2.10;99.90
6375;DHT22;35400;45.472;-122.822;2024-02-14T12:48:25;2.10;99.90
6375;DHT22;35400;45.472;-122.822;2024-02-14T12:50:53;2.10;99.90
6375;DHT22;35400;45.472;-122.822;2024-02-14T12:53:21;2.10;99.90
6375;DHT22;35400;45.472;-122.822;2024-02-14T12:55:48;2.10;99.90
6375;DHT22;35400;45.472;-122.822;2024-02-14T12:58:15;2.10;99.90
6375;DHT22;35400;45.472;-122.822;2024-02-14T13:00:43;2.20;99.90
6375;DHT22;35400;45.472;-122.822;2024-02-14T13:03:11;2.20;99.90
6375;DHT22;35400;45.472;-122.822;2024-02-14T13:05:39;2.20;99.90
6375;DHT22;35400;45.472;-122.822;2024-02-14T13:08:07;2.20;99.90
6375;DHT22;35400;45.472;-122.822;2024-02-14T13:10:37;2.20;99.90
6375;DHT22;35400;45.472;-122.822;2024-02-14T13:13:04;2.20;99.90
6375;DHT22;35400;45.472;-122.822;2024-02-14T13:15:31;2.30;99.90
6375;DHT22;35400;45.472;-122.822;2024-02-14T13:17:58;2.30;99.90
6375;DHT22;35400;45.472;-122.822;2024-02-14T13:20:26;2.30;99.90
6375;DHT22;35400;45.472;-122.822;2024-02-14T13:22:54;2.30;99.90
6375;DHT22;35400;45.472;-122.822;2024-02-14T13:25:21;2.30;99.90
6375;DHT22;35400;45.472;-122.822;2024-02-14T13:27:48;2.30;99.90
6375;DHT22;35400;45.472;-122.822;2024-02-14T13:30:15;2.30;99.90
6375;DHT22;35400;45.472;-122.822;2024-02-14T13:32:42;2.30;99.90
6375;DHT22;35400;45.472;-122.822;2024-02-14T13:35:09;2.30;99.90
6375;DHT22;35400;45.472;-122.822;2024-02-14T13:37:37;2.30;99.90
6375;DHT22;35400;45.472;-122.822;2024-02-14T13:40:05;2.30;99.90
6375;DHT22;35400;45.472;-122.822;2024-02-14T13:42:37;2.30;99.90
6375;DHT22;35400;45.472;-122.822;2024-02-14T13:45:08;2.30;99.90
6375;DHT22;35400;45.472;-122.822;2024-02-14T13:47:38;2.40;99.90
6375;DHT22;35400;45.472;-122.822;2024-02-14T13:50:09;2.40;99.90
6375;DHT22;35400;45.472;-122.822;2024-02-14T13:52:36;2.40;99.90
6375;DHT22;35400;45.472;-122.822;2024-02-14T13:55:03;2.40;99.90
6375;DHT22;35400;45.472;-122.822;2024-02-14T13:57:36;2.40;99.90
6375;DHT22;35400;45.472;-122.822;2024-02-14T14:00:05;2.40;99.90
6375;DHT22;35400;45.472;-122.822;2024-02-14T14:02:38;2.40;99.90
6375;DHT22;35400;45.472;-122.822;2024-02-14T14:05:09;2.40;99.90
6375;DHT22;35400;45.472;-122.822;2024-02-14T14:07:37;2.40;99.90
6375;DHT22;35400;45.472;-122.822;2024-02-14T14:10:05;2.40;99.90
6375;DHT22;35400;45.472;-122.822;2024-02-14T14:12:32;2.40;99.90
6375;DHT22;35400;45.472;-122.822;2024-02-14T14:15:01;2.40;99.90
6375;DHT22;35400;45.472;-122.822;2024-02-14T14:17:28;2.40;99.90
6375;DHT22;35400;45.472;-122.822;2024-02-14T14:19:55;2.40;99.90
6375;DHT22;35400;45.472;-122.822;2024-02-14T14:22:22;2.40;99.90
6375;DHT22;35400;45.472;-122.822;2024-02-14T14:24:57;2.30;99.90
6375;DHT22;35400;45.472;-122.822;2024-02-14T14:27:24;2.30;99.90
6375;DHT22;35400;45.472;-122.822;2024-02-14T14:29:51;2.30;99.90
6375;DHT22;35400;45.472;-122.822;2024-02-14T14:32:17;2.30;99.90
6375;DHT22;35400;45.472;-122.822;2024-02-14T14:34:44;2.30;99.90
6375;DHT22;35400;45.472;-122.822;2024-02-14T14:37:11;2.20;99.90
6375;DHT22;35400;45.472;-122.822;2024-02-14T14:39:38;2.20;99.90
6375;DHT22;35400;45.472;-122.822;2024-02-14T14:42:06;2.20;99.90
6375;DHT22;35400;45.472;-122.822;2024-02-14T14:44:34;2.20;99.90
6375;DHT22;35400;45.472;-122.822;2024-02-14T14:47:02;2.10;99.90
6375;DHT22;35400;45.472;-122.822;2024-02-14T14:49:29;2.10;99.90
6375;DHT22;35400;45.472;-122.822;2024-02-14T14:51:57;2.10;99.90
6375;DHT22;35400;45.472;-122.822;2024-02-14T14:54:24;2.10;99.90
6375;DHT22;35400;45.472;-122.822;2024-02-14T14:56:53;2.10;99.90
6375;DHT22;35400;45.472;-122.822;2024-02-14T14:59:21;2.10;99.90
6375;DHT22;35400;45.472;-122.822;2024-02-14T15:01:49;2.10;99.90
6375;DHT22;35400;45.472;-122.822;2024-02-14T15:04:16;2.10;99.90
6375;DHT22;35400;45.472;-122.822;2024-02-14T15:06:43;2.10;99.90
6375;DHT22;35400;45.472;-122.822;2024-02-14T15:09:13;2.10;99.90
6375;DHT22;35400;45.472;-122.822;2024-02-14T15:11:40;2.10;99.90
6375;DHT22;35400;45.472;-122.822;2024-02-14T15:14:07;2.10;99.90
6375;DHT22;35400;45.472;-122.822;2024-02-14T15:16:34;2.10;99.90
6375;DHT22;35400;45.472;-122.822;2024-02-14T15:19:00;2.10;99.90
6375;DHT22;35400;45.472;-122.822;2024-02-14T15:21:27;2.00;99.90
6375;DHT22;35400;45.472;-122.822;2024-02-14T15:23:54;2.10;99.90
6375;DHT22;35400;45.472;-122.822;2024-02-14T15:26:21;2.00;99.90